Harrison Township, Michigan
Current Conditions -  °F | °C
As of 9:58 PM on Tuesday 21 Oct 2014 (Local Time) from KMTC Reporting Station
Overcast Overcast  
Wind Chill:   Ceiling: 1700
Heat Index:   Visibility: 10mi
Dew Point:   Wind: 14mph
Humidity: 81%   Direction: 350°N
Pressure: 30.17"   Gusts: 22mph
Location:  42.58°N, 82.83°W
Report Text: KMTC 220158Z AUTO 35012G19KT 10SM OVC017 07/04 A3017 RMK AO2 SLP223 T00700040 $
Loading
Personal Weather Stations






























Interactive Weather Map
Tropical Storm Tracking
New forecast layout! Learn more

10-Day Weather Forecast

Advertisements
Track Severe Weather on mobile